Time;durP1;ratioP1;P1;durP2;ratioP2;P2;SDS_P1;SDS_P2;PMS_P1;PMS_P2;Temp;Humidity;BMP_temperature;BMP_pressure;BME280_temperature;BME280_humidity;BME280_pressure;Samples;Min_cycle;Max_cycle;Signal;HPM_P1;HPM_P2
2021/12/01 00:00:13;;;;;;;48.35;22.08;;;;;;;;;;5133421;28;20047;-79
2021/12/01 00:02:39;;;;;;;53.03;24.42;;;;;;;;;;5115597;28;20054;-78
2021/12/01 00:05:06;;;;;;;43.22;22.23;;;;;;;;;;5133636;28;20096;-80
2021/12/01 00:07:35;;;;;;;55.58;24.27;;;;;;;;;;5115456;28;20103;-78
2021/12/01 00:10:02;;;;;;;54.95;25.55;;;;;;;;;;5133335;28;20088;-78
2021/12/01 00:12:28;;;;;;;43.33;22.50;;;;;;;;;;5098077;28;20047;-78
2021/12/01 00:14:54;;;;;;;41.33;21.80;;;;;;;;;;5115176;28;20126;-78
2021/12/01 00:17:20;;;;;;;46.33;23.63;;;;;;;;;;5115368;28;20046;-78
2021/12/01 00:19:46;;;;;;;40.13;21.38;;;;;;;;;;5115473;28;20092;-78
2021/12/01 00:22:12;;;;;;;34.70;20.35;;;;;;;;;;5133341;28;20039;-78
2021/12/01 00:24:38;;;;;;;40.65;22.10;;;;;;;;;;5133240;28;20521;-77
2021/12/01 00:27:05;;;;;;;42.63;24.38;;;;;;;;;;5133078;28;20450;-77
2021/12/01 00:29:31;;;;;;;39.10;23.50;;;;;;;;;;5132993;28;20130;-78
2021/12/01 00:31:57;;;;;;;35.75;21.58;;;;;;;;;;5133227;27;20464;-77
2021/12/01 00:34:23;;;;;;;33.53;22.17;;;;;;;;;;5117867;27;20039;-76
2021/12/01 00:36:49;;;;;;;36.38;21.42;;;;;;;;;;5137123;27;20049;-77
2021/12/01 00:39:15;;;;;;;37.08;23.45;;;;;;;;;;5137147;27;20047;-77
2021/12/01 00:41:41;;;;;;;35.55;22.42;;;;;;;;;;5137039;27;20039;-77
2021/12/01 00:44:09;;;;;;;35.90;24.38;;;;;;;;;;5137312;27;20140;-78
2021/12/01 00:46:52;;;;;;;37.40;23.52;;;;;;;;;;5137109;27;20042;-77
2021/12/01 00:49:18;;;;;;;32.63;21.23;;;;;;;;;;5137073;27;20054;-77
2021/12/01 00:51:45;;;;;;;34.85;23.15;;;;;;;;;;5136994;27;20138;-79
2021/12/01 00:54:11;;;;;;;30.38;22.40;;;;;;;;;;5101299;27;20051;-79
2021/12/01 00:56:37;;;;;;;34.67;24.00;;;;;;;;;;5136938;27;20035;-78
2021/12/01 00:59:03;;;;;;;34.25;23.65;;;;;;;;;;5118699;27;20062;-78
2021/12/01 01:01:29;;;;;;;33.42;22.50;;;;;;;;;;5118503;27;20491;-75
2021/12/01 01:03:55;;;;;;;35.33;23.58;;;;;;;;;;5136669;27;20042;-75
2021/12/01 01:06:21;;;;;;;36.42;23.55;;;;;;;;;;5136367;27;20038;-78
2021/12/01 01:08:47;;;;;;;35.50;25.30;;;;;;;;;;5136429;27;20039;-77
2021/12/01 01:16:52;;;;;;;36.53;24.58;;;;;;;;;;5111799;27;20491;-79
2021/12/01 01:19:19;;;;;;;37.13;26.55;;;;;;;;;;5136226;27;20108;-77
2021/12/01 01:21:48;;;;;;;36.05;26.60;;;;;;;;;;5136494;27;20039;-78
2021/12/01 01:24:15;;;;;;;36.90;27.20;;;;;;;;;;5136124;27;20122;-77
2021/12/01 01:26:41;;;;;;;35.95;25.52;;;;;;;;;;5117971;27;20035;-77
2021/12/01 01:29:08;;;;;;;42.03;28.10;;;;;;;;;;5136150;27;20533;-79
2021/12/01 01:31:34;;;;;;;41.33;27.63;;;;;;;;;;5135926;27;20039;-79
2021/12/01 01:34:01;;;;;;;40.20;28.67;;;;;;;;;;5135851;27;20035;-78
2021/12/01 01:36:27;;;;;;;43.58;30.25;;;;;;;;;;5135935;27;20534;-77
2021/12/01 01:38:54;;;;;;;43.88;29.33;;;;;;;;;;5117953;27;20043;-79
2021/12/01 01:41:20;;;;;;;47.03;30.92;;;;;;;;;;5136073;27;20118;-78
2021/12/01 01:43:48;;;;;;;37.08;25.63;;;;;;;;;;5117399;27;20076;-78
2021/12/01 01:46:14;;;;;;;39.80;25.17;;;;;;;;;;5135674;27;20137;-78
2021/12/01 01:48:49;;;;;;;35.38;24.55;;;;;;;;;;5135538;27;20046;-78
2021/12/01 01:51:16;;;;;;;33.92;24.55;;;;;;;;;;5135684;27;20057;-77
2021/12/01 01:53:42;;;;;;;33.78;24.42;;;;;;;;;;5117759;27;20058;-78
2021/12/01 01:56:08;;;;;;;33.42;21.45;;;;;;;;;;5135593;27;20046;-80
2021/12/01 01:58:34;;;;;;;34.17;23.05;;;;;;;;;;5117307;27;20078;-79
2021/12/01 02:01:07;;;;;;;31.58;21.30;;;;;;;;;;5117497;27;20035;-79
2021/12/01 02:03:35;;;;;;;35.70;21.25;;;;;;;;;;5135648;27;20043;-77
2021/12/01 02:06:01;;;;;;;30.58;20.30;;;;;;;;;;5135516;27;20053;-79
2021/12/01 02:08:37;;;;;;;32.05;20.13;;;;;;;;;;5116960;27;20043;-79
2021/12/01 02:11:05;;;;;;;32.13;19.48;;;;;;;;;;5135448;27;20039;-78
2021/12/01 02:13:32;;;;;;;31.60;19.88;;;;;;;;;;5135250;27;20078;-78
2021/12/01 02:15:58;;;;;;;27.05;19.15;;;;;;;;;;5135431;27;20174;-79
2021/12/01 02:18:24;;;;;;;28.73;18.20;;;;;;;;;;5117240;27;20087;-79
2021/12/01 02:21:13;;;;;;;26.38;17.92;;;;;;;;;;5116877;27;20126;-80
2021/12/01 02:23:44;;;;;;;26.15;17.02;;;;;;;;;;5099966;27;20071;-78
2021/12/01 02:26:11;;;;;;;22.33;16.00;;;;;;;;;;5117168;27;20043;-77
2021/12/01 02:28:37;;;;;;;26.10;16.23;;;;;;;;;;5117020;27;20484;-80
2021/12/01 02:31:03;;;;;;;21.23;15.30;;;;;;;;;;5116877;27;20043;-80
2021/12/01 02:33:29;;;;;;;22.98;14.73;;;;;;;;;;5135150;27;20484;-79
2021/12/01 02:35:56;;;;;;;22.45;14.75;;;;;;;;;;5134956;27;20429;-79
2021/12/01 02:38:22;;;;;;;24.25;15.15;;;;;;;;;;5116602;27;20042;-79
2021/12/01 02:40:48;;;;;;;23.42;14.50;;;;;;;;;;5117068;27;20035;-77
2021/12/01 02:43:15;;;;;;;19.48;13.30;;;;;;;;;;5116844;27;20091;-78
2021/12/01 02:45:41;;;;;;;21.27;13.93;;;;;;;;;;5116780;27;20537;-80
2021/12/01 02:48:10;;;;;;;21.33;13.38;;;;;;;;;;5116776;27;20047;-78
2021/12/01 02:50:36;;;;;;;18.75;12.40;;;;;;;;;;5116206;27;20047;-77
2021/12/01 02:53:02;;;;;;;18.63;11.82;;;;;;;;;;5116332;27;20050;-77
2021/12/01 02:55:29;;;;;;;18.45;12.25;;;;;;;;;;5116087;27;20055;-79
2021/12/01 02:57:59;;;;;;;18.55;10.93;;;;;;;;;;5115913;27;20039;-77
2021/12/01 03:00:25;;;;;;;16.35;10.85;;;;;;;;;;5134489;27;20091;-78
2021/12/01 03:02:52;;;;;;;15.93;10.70;;;;;;;;;;5134522;27;20039;-78
2021/12/01 03:05:19;;;;;;;17.42;10.63;;;;;;;;;;5135093;27;20105;-78
2021/12/01 03:07:45;;;;;;;14.68;9.60;;;;;;;;;;5139309;27;20065;-79
2021/12/01 03:10:12;;;;;;;12.05;8.60;;;;;;;;;;5139878;27;20491;-79
2021/12/01 03:12:39;;;;;;;15.32;9.93;;;;;;;;;;5140227;27;20384;-78
2021/12/01 03:15:07;;;;;;;18.50;10.48;;;;;;;;;;5120387;27;20096;-78
2021/12/01 03:17:34;;;;;;;11.13;7.18;;;;;;;;;;5116248;27;20050;-77
2021/12/01 03:20:00;;;;;;;12.05;8.13;;;;;;;;;;5134158;27;20039;-79
2021/12/01 03:22:27;;;;;;;15.00;8.70;;;;;;;;;;5115791;27;20443;-80
2021/12/01 03:24:53;;;;;;;10.30;6.50;;;;;;;;;;5134087;27;20471;-78
2021/12/01 03:27:19;;;;;;;10.60;6.22;;;;;;;;;;5115872;27;20388;-80
2021/12/01 03:29:49;;;;;;;7.07;4.13;;;;;;;;;;5133945;27;20068;-79
2021/12/01 03:32:15;;;;;;;8.43;3.92;;;;;;;;;;5134026;27;20471;-78
2021/12/01 03:34:42;;;;;;;7.78;2.70;;;;;;;;;;5115370;27;20106;-79
2021/12/01 03:37:11;;;;;;;8.27;2.00;;;;;;;;;;5115828;27;20039;-77
2021/12/01 03:39:37;;;;;;;7.68;2.22;;;;;;;;;;5134056;27;20049;-78
2021/12/01 03:42:04;;;;;;;8.77;2.25;;;;;;;;;;5133877;27;20039;-78
2021/12/01 03:44:30;;;;;;;11.07;2.67;;;;;;;;;;5115602;27;20050;-77
2021/12/01 03:46:56;;;;;;;8.73;2.30;;;;;;;;;;5115720;28;20043;-78
2021/12/01 03:49:22;;;;;;;7.18;2.25;;;;;;;;;;5133576;27;20527;-78
2021/12/01 03:51:48;;;;;;;5.60;2.28;;;;;;;;;;5133667;27;20137;-79
2021/12/01 03:54:14;;;;;;;6.90;2.10;;;;;;;;;;5133643;27;20169;-78
2021/12/01 03:56:41;;;;;;;5.43;1.95;;;;;;;;;;5133716;28;20511;-78
2021/12/01 03:59:07;;;;;;;6.90;2.38;;;;;;;;;;5115561;28;20054;-78
2021/12/01 04:01:33;;;;;;;6.03;2.60;;;;;;;;;;5115300;28;20049;-79
2021/12/01 04:03:59;;;;;;;8.70;2.70;;;;;;;;;;5115039;28;20059;-79
2021/12/01 04:06:26;;;;;;;9.30;2.83;;;;;;;;;;5133801;28;20039;-79
2021/12/01 04:08:53;;;;;;;9.23;2.97;;;;;;;;;;5119418;27;20135;-80
2021/12/01 04:11:19;;;;;;;5.70;2.92;;;;;;;;;;5137910;27;20421;-78
2021/12/01 04:13:45;;;;;;;7.65;3.88;;;;;;;;;;5119444;27;20464;-79
2021/12/01 04:16:11;;;;;;;8.00;3.83;;;;;;;;;;5137777;27;20035;-79
2021/12/01 04:18:39;;;;;;;6.82;3.65;;;;;;;;;;5102418;27;20144;-79
2021/12/01 04:21:05;;;;;;;8.43;4.35;;;;;;;;;;5137612;27;20042;-79
2021/12/01 04:23:34;;;;;;;7.32;4.20;;;;;;;;;;5137552;27;20043;-79
2021/12/01 04:26:00;;;;;;;8.15;4.72;;;;;;;;;;5137320;27;20046;-78
2021/12/01 04:28:26;;;;;;;9.13;5.00;;;;;;;;;;5118923;27;20039;-78
2021/12/01 04:30:52;;;;;;;7.53;4.82;;;;;;;;;;5119391;27;20114;-77
2021/12/01 04:33:18;;;;;;;6.60;4.45;;;;;;;;;;5119311;27;20039;-77
2021/12/01 04:35:46;;;;;;;7.55;4.63;;;;;;;;;;5118943;27;20043;-79
2021/12/01 04:38:12;;;;;;;7.63;4.80;;;;;;;;;;5137251;27;20042;-77
2021/12/01 04:40:39;;;;;;;6.88;4.47;;;;;;;;;;5119101;27;20049;-79
2021/12/01 04:43:05;;;;;;;6.22;4.32;;;;;;;;;;5118942;27;20076;-78
2021/12/01 04:45:32;;;;;;;7.78;4.15;;;;;;;;;;5136991;27;20122;-80
2021/12/01 04:47:58;;;;;;;6.65;4.40;;;;;;;;;;5119109;27;20072;-78
2021/12/01 04:50:26;;;;;;;7.05;4.30;;;;;;;;;;5136937;27;20043;-77
2021/12/01 04:52:54;;;;;;;6.97;4.10;;;;;;;;;;5118675;27;20115;-78
2021/12/01 04:55:20;;;;;;;8.57;4.35;;;;;;;;;;5118854;27;20043;-78
2021/12/01 04:57:47;;;;;;;6.15;3.83;;;;;;;;;;5118521;27;20097;-79
2021/12/01 05:00:16;;;;;;;5.78;3.45;;;;;;;;;;5118559;27;20051;-79
2021/12/01 05:02:42;;;;;;;5.80;3.67;;;;;;;;;;5136984;27;20063;-79
2021/12/01 05:05:08;;;;;;;5.53;3.47;;;;;;;;;;5118549;27;20086;-79
2021/12/01 05:07:35;;;;;;;6.63;3.05;;;;;;;;;;5118387;27;20053;-78
2021/12/01 05:10:01;;;;;;;5.40;3.13;;;;;;;;;;5136628;27;20086;-78
2021/12/01 05:12:27;;;;;;;4.85;2.72;;;;;;;;;;5117899;27;20042;-80
2021/12/01 05:14:53;;;;;;;5.32;3.10;;;;;;;;;;5136427;27;20039;-79
2021/12/01 05:17:20;;;;;;;5.78;2.90;;;;;;;;;;5118559;27;20122;-78
2021/12/01 05:19:47;;;;;;;5.45;2.85;;;;;;;;;;5117407;27;20563;-79
2021/12/01 05:22:13;;;;;;;5.10;2.58;;;;;;;;;;5118041;27;20049;-79
2021/12/01 05:24:39;;;;;;;5.32;2.97;;;;;;;;;;5118065;27;20392;-79
2021/12/01 05:27:05;;;;;;;4.07;2.42;;;;;;;;;;5136182;27;20043;-79
2021/12/01 05:29:32;;;;;;;6.93;2.70;;;;;;;;;;5118065;27;20046;-77
2021/12/01 05:31:59;;;;;;;5.90;2.70;;;;;;;;;;5136336;27;20047;-79
2021/12/01 05:34:25;;;;;;;5.32;2.45;;;;;;;;;;5136171;27;20121;-78
2021/12/01 05:36:53;;;;;;;4.53;2.22;;;;;;;;;;5117671;27;20560;-78
2021/12/01 05:39:19;;;;;;;4.28;2.17;;;;;;;;;;5135922;27;20484;-79
2021/12/01 05:41:46;;;;;;;4.75;2.30;;;;;;;;;;5135964;27;20179;-78
2021/12/01 05:44:12;;;;;;;4.15;2.10;;;;;;;;;;5117820;27;20042;-79
2021/12/01 05:46:38;;;;;;;3.42;1.90;;;;;;;;;;5117679;27;20104;-80
2021/12/01 05:49:04;;;;;;;4.03;2.40;;;;;;;;;;5135841;27;21093;-78
2021/12/01 05:51:31;;;;;;;4.07;2.40;;;;;;;;;;5135881;27;20094;-78
2021/12/01 05:53:57;;;;;;;4.30;2.25;;;;;;;;;;5135789;27;20125;-78
2021/12/01 05:56:23;;;;;;;5.60;2.40;;;;;;;;;;5117465;27;20122;-79
2021/12/01 05:58:49;;;;;;;4.80;2.50;;;;;;;;;;5135956;27;20050;-77
2021/12/01 06:01:15;;;;;;;5.15;2.72;;;;;;;;;;5135809;27;20388;-78
2021/12/01 06:03:43;;;;;;;4.47;2.30;;;;;;;;;;5100404;27;20125;-77
2021/12/01 06:06:09;;;;;;;3.55;1.90;;;;;;;;;;5135526;27;20057;-77
2021/12/01 06:08:35;;;;;;;5.20;1.80;;;;;;;;;;5135416;27;20087;-77
2021/12/01 06:11:01;;;;;;;3.95;2.15;;;;;;;;;;5116817;27;20043;-79
2021/12/01 06:13:28;;;;;;;4.18;2.25;;;;;;;;;;5135295;27;20080;-78
2021/12/01 06:15:54;;;;;;;4.00;2.00;;;;;;;;;;5117352;27;20090;-77
2021/12/01 06:18:20;;;;;;;4.15;2.05;;;;;;;;;;5135312;27;20507;-78
2021/12/01 06:20:46;;;;;;;3.63;1.75;;;;;;;;;;5117019;27;20121;-78
2021/12/01 06:23:13;;;;;;;4.78;2.33;;;;;;;;;;5116940;27;20046;-79
2021/12/01 06:25:39;;;;;;;4.25;2.00;;;;;;;;;;5135551;27;20376;-77
2021/12/01 06:28:05;;;;;;;3.83;1.90;;;;;;;;;;5135334;27;20099;-79
2021/12/01 06:30:32;;;;;;;4.03;2.05;;;;;;;;;;5116037;28;20046;-78
2021/12/01 06:32:59;;;;;;;4.25;2.22;;;;;;;;;;5116305;27;20065;-79
2021/12/01 06:35:25;;;;;;;3.85;2.00;;;;;;;;;;5134830;27;20078;-79
2021/12/01 06:37:53;;;;;;;3.78;2.00;;;;;;;;;;5134769;27;20082;-77
2021/12/01 06:40:20;;;;;;;3.85;2.08;;;;;;;;;;5134954;27;20118;-79
2021/12/01 06:42:47;;;;;;;3.45;1.67;;;;;;;;;;5116399;27;20415;-79
2021/12/01 06:45:13;;;;;;;4.30;2.30;;;;;;;;;;5116746;27;20464;-80
2021/12/01 06:47:40;;;;;;;4.47;2.03;;;;;;;;;;5134753;27;20505;-77
2021/12/01 06:50:07;;;;;;;3.85;2.10;;;;;;;;;;5116465;27;20074;-79
2021/12/01 06:52:33;;;;;;;4.25;2.35;;;;;;;;;;5134392;27;20039;-78
2021/12/01 06:55:00;;;;;;;4.97;2.55;;;;;;;;;;5134379;27;20478;-78
2021/12/01 06:57:26;;;;;;;3.90;2.17;;;;;;;;;;5134724;27;20081;-77
2021/12/01 06:59:53;;;;;;;5.05;2.80;;;;;;;;;;5134564;27;20523;-78
2021/12/01 07:02:19;;;;;;;4.22;2.42;;;;;;;;;;5134372;27;20042;-78
2021/12/01 07:04:45;;;;;;;4.20;2.35;;;;;;;;;;5134382;27;20361;-77
2021/12/01 07:07:12;;;;;;;4.35;2.58;;;;;;;;;;5134375;27;20507;-76
2021/12/01 07:09:38;;;;;;;4.20;2.47;;;;;;;;;;5134427;27;20429;-77
2021/12/01 07:12:04;;;;;;;5.22;2.55;;;;;;;;;;5115908;27;20043;-80
2021/12/01 07:14:30;;;;;;;4.95;2.72;;;;;;;;;;5134132;27;20483;-77
2021/12/01 07:16:57;;;;;;;4.43;2.35;;;;;;;;;;5116138;28;20541;-78
2021/12/01 07:19:23;;;;;;;4.60;2.63;;;;;;;;;;5116019;27;20042;-76
2021/12/01 07:21:49;;;;;;;4.65;2.53;;;;;;;;;;5134030;27;20495;-77
2021/12/01 07:24:16;;;;;;;5.05;3.00;;;;;;;;;;5134307;27;20139;-76
2021/12/01 07:26:42;;;;;;;4.85;3.05;;;;;;;;;;5134107;27;20059;-77
2021/12/01 07:29:08;;;;;;;4.60;2.53;;;;;;;;;;5134070;27;20119;-78
2021/12/01 07:31:35;;;;;;;6.38;2.50;;;;;;;;;;5133871;27;20057;-77
2021/12/01 07:34:01;;;;;;;4.80;2.65;;;;;;;;;;5133755;27;20130;-77
2021/12/01 07:36:27;;;;;;;4.63;2.33;;;;;;;;;;5115561;27;20038;-77
2021/12/01 07:38:53;;;;;;;5.40;2.40;;;;;;;;;;5081853;28;20175;-78
2021/12/01 07:41:20;;;;;;;4.57;2.60;;;;;;;;;;5133928;27;20042;-78
2021/12/01 07:43:47;;;;;;;4.38;2.55;;;;;;;;;;5133466;27;20131;-78
2021/12/01 07:46:14;;;;;;;4.15;2.35;;;;;;;;;;5098501;27;20196;-78
2021/12/01 07:48:40;;;;;;;5.30;2.35;;;;;;;;;;5115295;27;20039;-79
2021/12/01 07:51:06;;;;;;;5.57;2.55;;;;;;;;;;5132778;27;20117;-79
2021/12/01 07:53:34;;;;;;;4.00;2.20;;;;;;;;;;5133017;27;20036;-78
2021/12/01 07:56:04;;;;;;;5.65;3.20;;;;;;;;;;5133535;27;20526;-77
2021/12/01 07:58:30;;;;;;;8.05;2.80;;;;;;;;;;5133436;28;20043;-78
2021/12/01 08:00:56;;;;;;;4.82;2.33;;;;;;;;;;5133633;28;20039;-78
2021/12/01 08:03:22;;;;;;;5.13;2.72;;;;;;;;;;5114653;28;20389;-79
2021/12/01 08:05:48;;;;;;;4.32;2.17;;;;;;;;;;5115491;28;20039;-79
2021/12/01 08:08:15;;;;;;;4.88;2.13;;;;;;;;;;5133638;28;20038;-80
2021/12/01 08:10:41;;;;;;;4.28;2.22;;;;;;;;;;5115414;28;20047;-79
2021/12/01 08:13:08;;;;;;;4.15;2.35;;;;;;;;;;5133395;28;20104;-78
2021/12/01 08:15:34;;;;;;;4.72;2.10;;;;;;;;;;5115286;28;20050;-79
2021/12/01 08:18:00;;;;;;;4.40;2.00;;;;;;;;;;5133206;28;20053;-78
2021/12/01 08:20:26;;;;;;;4.20;2.25;;;;;;;;;;5098229;28;20042;-78
2021/12/01 08:22:54;;;;;;;4.20;2.13;;;;;;;;;;5115217;28;20071;-78
2021/12/01 08:25:20;;;;;;;3.95;2.08;;;;;;;;;;5133323;28;20043;-78
2021/12/01 08:27:46;;;;;;;4.18;2.08;;;;;;;;;;5133251;28;20039;-79
2021/12/01 08:30:13;;;;;;;4.00;2.40;;;;;;;;;;5115135;28;20086;-79
2021/12/01 08:32:45;;;;;;;5.20;2.58;;;;;;;;;;5114665;28;20070;-80
2021/12/01 08:35:11;;;;;;;4.53;2.72;;;;;;;;;;5133282;28;20391;-77
2021/12/01 08:37:37;;;;;;;6.45;3.15;;;;;;;;;;5098303;28;20043;-78
2021/12/01 08:40:04;;;;;;;5.35;2.97;;;;;;;;;;5115142;28;20071;-80
2021/12/01 08:42:30;;;;;;;5.75;3.20;;;;;;;;;;5133203;28;20042;-77
2021/12/01 08:44:56;;;;;;;5.47;2.70;;;;;;;;;;5115022;28;20058;-78
2021/12/01 08:47:28;;;;;;;4.47;2.78;;;;;;;;;;5132908;28;20045;-78
2021/12/01 08:49:54;;;;;;;5.00;3.08;;;;;;;;;;5114832;28;20039;-78
2021/12/01 08:52:22;;;;;;;4.93;2.70;;;;;;;;;;5132765;28;20571;-78
2021/12/01 08:54:48;;;;;;;5.70;2.83;;;;;;;;;;5116757;27;20042;-78
2021/12/01 08:57:14;;;;;;;5.70;3.65;;;;;;;;;;5118794;27;20054;-76
2021/12/01 08:59:40;;;;;;;7.18;3.25;;;;;;;;;;5136791;27;20658;-77
2021/12/01 09:02:06;;;;;;;5.05;3.03;;;;;;;;;;5118599;27;20047;-77
2021/12/01 09:04:33;;;;;;;6.18;3.58;;;;;;;;;;5136648;27;20498;-78
2021/12/01 09:06:59;;;;;;;5.30;3.17;;;;;;;;;;5136802;27;20089;-81
2021/12/01 09:09:25;;;;;;;6.45;3.30;;;;;;;;;;5118709;27;20085;-79
2021/12/01 09:11:52;;;;;;;6.13;2.28;;;;;;;;;;5136485;27;20039;-78
2021/12/01 09:14:19;;;;;;;6.50;2.40;;;;;;;;;;5136439;27;20130;-78
2021/12/01 09:16:46;;;;;;;6.25;2.42;;;;;;;;;;5101469;27;20043;-77
2021/12/01 09:19:12;;;;;;;8.18;1.95;;;;;;;;;;5118409;27;20121;-78
2021/12/01 09:21:38;;;;;;;8.73;1.98;;;;;;;;;;5118188;27;20125;-77
2021/12/01 09:24:04;;;;;;;8.50;1.88;;;;;;;;;;5136488;27;20042;-78
2021/12/01 09:26:31;;;;;;;8.30;1.60;;;;;;;;;;5117667;27;20070;-79
2021/12/01 09:28:58;;;;;;;8.07;1.80;;;;;;;;;;5136246;27;20047;-79
2021/12/01 09:31:24;;;;;;;9.80;1.90;;;;;;;;;;5136402;27;20035;-79
2021/12/01 09:33:50;;;;;;;7.70;1.90;;;;;;;;;;5118032;27;20039;-80
2021/12/01 09:36:17;;;;;;;11.80;1.98;;;;;;;;;;5118185;27;20043;-77
2021/12/01 09:38:43;;;;;;;9.38;1.70;;;;;;;;;;5117822;27;20099;-80
2021/12/01 09:41:10;;;;;;;5.45;1.30;;;;;;;;;;5117851;27;20172;-78
2021/12/01 09:43:36;;;;;;;8.90;1.42;;;;;;;;;;5135945;27;20143;-76
2021/12/01 09:46:04;;;;;;;9.43;1.50;;;;;;;;;;5117927;27;20535;-76
2021/12/01 09:48:32;;;;;;;8.15;1.40;;;;;;;;;;5136214;27;20046;-77
2021/12/01 09:50:58;;;;;;;10.15;1.70;;;;;;;;;;5118777;27;20039;-76
2021/12/01 09:53:24;;;;;;;8.07;1.25;;;;;;;;;;5138000;27;20062;-75
2021/12/01 09:55:51;;;;;;;7.55;1.60;;;;;;;;;;5136756;27;20441;-78
2021/12/01 09:58:22;;;;;;;8.38;1.80;;;;;;;;;;5118774;27;20050;-77
2021/12/01 10:00:54;;;;;;;8.30;1.40;;;;;;;;;;5100556;27;20043;-79
2021/12/01 10:03:20;;;;;;;9.35;1.50;;;;;;;;;;5135720;27;20035;-78
2021/12/01 10:05:51;;;;;;;11.05;1.80;;;;;;;;;;5135452;27;20131;-77
2021/12/01 10:08:18;;;;;;;10.18;1.75;;;;;;;;;;5135602;27;20328;-76
2021/12/01 10:10:45;;;;;;;12.57;1.52;;;;;;;;;;5117270;27;20104;-77
2021/12/01 10:13:11;;;;;;;9.45;1.30;;;;;;;;;;5099716;27;20121;-77
2021/12/01 10:15:37;;;;;;;8.57;1.20;;;;;;;;;;5135326;27;20042;-75
2021/12/01 10:18:14;;;;;;;12.50;1.70;;;;;;;;;;5135260;27;20122;-75
2021/12/01 10:20:41;;;;;;;10.43;1.42;;;;;;;;;;5134937;27;20043;-78
2021/12/01 10:23:12;;;;;;;12.77;1.83;;;;;;;;;;5135614;27;20480;-78
2021/12/01 10:25:38;;;;;;;6.95;1.20;;;;;;;;;;5116284;27;20043;-77
2021/12/01 10:28:05;;;;;;;13.48;1.80;;;;;;;;;;5133533;27;20047;-78
2021/12/01 10:30:37;;;;;;;8.80;1.92;;;;;;;;;;5115642;27;20479;-78
2021/12/01 10:33:09;;;;;;;11.60;1.60;;;;;;;;;;5133638;27;20126;-76
2021/12/01 10:35:36;;;;;;;11.43;1.80;;;;;;;;;;5133633;27;20035;-75
2021/12/01 10:38:02;;;;;;;8.38;1.40;;;;;;;;;;5115456;27;20051;-77
2021/12/01 10:40:29;;;;;;;12.77;2.08;;;;;;;;;;5134042;27;20464;-79
2021/12/01 10:42:56;;;;;;;11.15;1.60;;;;;;;;;;5115304;27;20057;-79
2021/12/01 10:45:25;;;;;;;10.95;1.52;;;;;;;;;;5115306;27;20118;-76
2021/12/01 10:47:52;;;;;;;15.45;2.08;;;;;;;;;;5133427;27;20058;-78
2021/12/01 10:50:19;;;;;;;9.80;1.65;;;;;;;;;;5115130;27;20051;-76
2021/12/01 10:52:49;;;;;;;12.13;1.70;;;;;;;;;;5133651;27;20441;-77
2021/12/01 10:55:18;;;;;;;9.93;1.60;;;;;;;;;;5133432;27;20457;-79
2021/12/01 10:57:47;;;;;;;7.78;1.45;;;;;;;;;;5115107;27;20112;-79
2021/12/01 11:00:15;;;;;;;10.18;1.45;;;;;;;;;;5133367;27;20047;-75
2021/12/01 11:02:41;;;;;;;12.73;1.42;;;;;;;;;;5114808;27;20054;-75
2021/12/01 11:05:07;;;;;;;10.35;1.30;;;;;;;;;;5133515;27;20082;-78
2021/12/01 11:07:34;;;;;;;9.55;1.15;;;;;;;;;;5133229;27;20100;-78
2021/12/01 11:10:20;;;;;;;11.27;1.50;;;;;;;;;;5132988;27;20061;-77
2021/12/01 11:12:53;;;;;;;10.20;1.80;;;;;;;;;;5133173;27;20502;-76
2021/12/01 11:15:27;;;;;;;15.07;1.88;;;;;;;;;;5133027;27;20077;-77
2021/12/01 11:17:54;;;;;;;13.90;1.60;;;;;;;;;;5132435;27;20074;-76
2021/12/01 11:20:32;;;;;;;12.05;1.63;;;;;;;;;;5132973;27;20050;-76
2021/12/01 11:23:13;;;;;;;10.65;1.50;;;;;;;;;;5132937;27;20043;-78
2021/12/01 11:25:39;;;;;;;11.82;1.60;;;;;;;;;;5132885;27;20467;-79
2021/12/01 11:28:08;;;;;;;12.93;1.92;;;;;;;;;;5132850;27;20430;-78
2021/12/01 11:30:34;;;;;;;13.30;2.10;;;;;;;;;;5114971;27;20047;-77
2021/12/01 11:33:01;;;;;;;13.07;1.80;;;;;;;;;;5113873;27;20395;-77
2021/12/01 11:35:27;;;;;;;12.93;2.20;;;;;;;;;;5132822;27;20039;-76
2021/12/01 11:37:55;;;;;;;12.57;2.20;;;;;;;;;;5132943;27;20043;-77
2021/12/01 11:40:29;;;;;;;13.13;2.00;;;;;;;;;;5114457;27;20047;-77
2021/12/01 11:42:56;;;;;;;17.65;1.95;;;;;;;;;;5133042;27;20373;-77
2021/12/01 11:45:23;;;;;;;17.35;2.80;;;;;;;;;;5114219;27;20395;-77
2021/12/01 11:47:50;;;;;;;19.65;2.28;;;;;;;;;;5114560;28;20138;-77
2021/12/01 11:50:18;;;;;;;14.85;2.38;;;;;;;;;;5097249;27;20054;-75
2021/12/01 11:52:55;;;;;;;13.63;1.85;;;;;;;;;;5132399;27;20108;-77
2021/12/01 11:55:40;;;;;;;15.50;2.15;;;;;;;;;;5114440;28;20484;-77
2021/12/01 11:58:06;;;;;;;14.23;2.22;;;;;;;;;;5132490;28;20053;-76
2021/12/01 12:00:45;;;;;;;13.90;2.20;;;;;;;;;;5132633;28;20149;-77
2021/12/01 12:03:25;;;;;;;15.52;2.28;;;;;;;;;;5132172;28;20092;-74
2021/12/01 12:06:10;;;;;;;14.90;2.05;;;;;;;;;;5132479;28;20047;-78
2021/12/01 12:08:55;;;;;;;12.95;2.08;;;;;;;;;;5113941;28;20050;-76
2021/12/01 12:11:37;;;;;;;18.77;3.08;;;;;;;;;;5113791;28;20372;-78
2021/12/01 12:14:06;;;;;;;20.92;2.92;;;;;;;;;;5132451;28;20039;-78
2021/12/01 12:16:32;;;;;;;24.38;3.20;;;;;;;;;;5132535;28;20039;-76
2021/12/01 12:18:59;;;;;;;15.93;3.13;;;;;;;;;;5132435;28;20043;-76
2021/12/01 12:24:02;;;;;;;19.48;2.33;;;;;;;;;;5132192;28;20047;-77
2021/12/01 12:26:34;;;;;;;19.10;3.10;;;;;;;;;;5114346;28;20540;-79
2021/12/01 12:28:59;;;;;;;;;;;;;;;;;;5134604;27;20043;-76
2021/12/01 12:31:27;;;;;;;14.95;1.92;;;;;;;;;;5118206;27;19915;-78
2021/12/01 12:33:55;;;;;;;18.50;2.60;;;;;;;;;;5136415;27;20126;-78
2021/12/01 12:36:40;;;;;;;17.58;2.50;;;;;;;;;;5118056;27;20081;-78
2021/12/01 12:39:08;;;;;;;18.70;2.63;;;;;;;;;;5137182;27;20074;-78
2021/12/01 12:41:54;;;;;;;15.70;2.25;;;;;;;;;;5118827;27;20122;-78
2021/12/01 12:44:30;;;;;;;22.10;3.25;;;;;;;;;;5136750;27;20035;-77
2021/12/01 12:47:14;;;;;;;20.95;2.75;;;;;;;;;;5136864;27;20047;-78
2021/12/01 12:49:46;;;;;;;20.77;2.85;;;;;;;;;;5118684;27;20102;-77
2021/12/01 12:52:27;;;;;;;17.67;2.88;;;;;;;;;;5100930;27;20051;-76
2021/12/01 12:54:57;;;;;;;21.33;2.55;;;;;;;;;;5136913;27;20488;-77
2021/12/01 12:57:25;;;;;;;15.30;2.40;;;;;;;;;;5118403;27;20443;-76
2021/12/01 13:00:11;;;;;;;22.02;3.47;;;;;;;;;;5136978;27;20489;-79
2021/12/01 13:02:37;;;;;;;19.17;2.33;;;;;;;;;;5136574;27;20039;-79
2021/12/01 13:05:05;;;;;;;19.65;2.53;;;;;;;;;;5136750;27;20472;-78
2021/12/01 13:07:34;;;;;;;18.65;2.97;;;;;;;;;;5136546;27;20054;-78
2021/12/01 13:10:10;;;;;;;17.52;2.80;;;;;;;;;;5118359;27;20043;-77
2021/12/01 13:12:53;;;;;;;14.80;2.40;;;;;;;;;;5117905;27;20127;-77
2021/12/01 13:15:22;;;;;;;18.98;2.53;;;;;;;;;;5136464;27;20108;-77
2021/12/01 13:17:59;;;;;;;20.10;2.88;;;;;;;;;;5136534;27;20047;-75
2021/12/01 13:20:27;;;;;;;16.05;2.20;;;;;;;;;;5136313;27;20357;-78
2021/12/01 13:23:02;;;;;;;18.40;2.42;;;;;;;;;;5136415;27;20433;-78
2021/12/01 13:25:28;;;;;;;20.05;2.80;;;;;;;;;;5136467;27;20121;-76
2021/12/01 13:27:55;;;;;;;15.82;2.30;;;;;;;;;;5136119;27;20046;-77
2021/12/01 13:30:21;;;;;;;16.48;2.45;;;;;;;;;;5117968;27;20126;-78
2021/12/01 13:33:04;;;;;;;13.00;2.17;;;;;;;;;;5135851;27;20064;-76
2021/12/01 13:35:31;;;;;;;11.15;1.73;;;;;;;;;;5136151;27;20043;-76
2021/12/01 13:37:57;;;;;;;13.90;1.92;;;;;;;;;;5136047;27;20376;-77
2021/12/01 13:40:26;;;;;;;14.73;1.95;;;;;;;;;;5135458;27;20043;-75
2021/12/01 13:42:52;;;;;;;11.85;1.90;;;;;;;;;;5135986;27;20047;-77
2021/12/01 13:45:18;;;;;;;14.05;2.13;;;;;;;;;;5135817;27;20209;-79
2021/12/01 13:47:44;;;;;;;10.60;1.85;;;;;;;;;;5135999;27;20043;-77
2021/12/01 13:50:10;;;;;;;14.30;2.10;;;;;;;;;;5135529;27;20043;-75
2021/12/01 13:52:37;;;;;;;14.25;1.85;;;;;;;;;;5117583;27;20054;-79
2021/12/01 13:55:27;;;;;;;15.30;1.92;;;;;;;;;;5135852;27;20047;-76
2021/12/01 13:57:54;;;;;;;12.73;1.60;;;;;;;;;;5105068;27;20058;-78
2021/12/01 14:00:34;;;;;;;8.90;1.35;;;;;;;;;;5135827;27;20050;-79
2021/12/01 14:03:01;;;;;;;11.68;1.70;;;;;;;;;;5135639;27;20050;-78
2021/12/01 14:05:28;;;;;;;13.35;1.98;;;;;;;;;;5117295;27;20039;-76
2021/12/01 14:07:55;;;;;;;12.68;1.73;;;;;;;;;;5100050;27;20041;-78
2021/12/01 14:10:40;;;;;;;15.57;2.10;;;;;;;;;;5135402;27;20507;-77
2021/12/01 14:13:06;;;;;;;12.43;1.60;;;;;;;;;;5116852;27;20094;-77
2021/12/01 14:15:34;;;;;;;10.90;1.45;;;;;;;;;;5135419;27;20142;-76
2021/12/01 14:18:01;;;;;;;12.35;2.17;;;;;;;;;;5117271;27;20058;-78
2021/12/01 14:20:27;;;;;;;13.93;1.88;;;;;;;;;;5135084;27;20043;-77
2021/12/01 14:22:54;;;;;;;14.25;1.98;;;;;;;;;;5135383;27;20122;-76
2021/12/01 14:25:21;;;;;;;13.80;2.03;;;;;;;;;;5135182;27;20047;-79
2021/12/01 14:27:47;;;;;;;14.02;2.20;;;;;;;;;;5135083;27;20039;-75
2021/12/01 14:30:15;;;;;;;11.35;2.08;;;;;;;;;;5134901;27;20042;-77
2021/12/01 14:32:41;;;;;;;14.32;2.00;;;;;;;;;;5133696;27;20412;-77
2021/12/01 14:35:08;;;;;;;14.90;2.00;;;;;;;;;;5134849;27;20472;-76
2021/12/01 14:37:35;;;;;;;14.90;1.52;;;;;;;;;;5135007;27;20061;-77
2021/12/01 14:40:09;;;;;;;13.23;2.22;;;;;;;;;;5116759;27;20050;-75
2021/12/01 14:42:40;;;;;;;15.60;1.80;;;;;;;;;;5116676;27;20051;-77
2021/12/01 14:45:07;;;;;;;15.70;2.50;;;;;;;;;;5134846;27;20135;-75